Time;durP1;ratioP1;P1;durP2;ratioP2;P2;SDS_P1;SDS_P2;PMS_P1;PMS_P2;Temp;Humidity;BMP_temperature;BMP_pressure;BME280_temperature;BME280_humidity;BME280_pressure;Samples;Min_cycle;Max_cycle;Signal;HPM_P1;HPM_P2
2022/01/23 00:00:01;;;;;;;0.00;0.00;;;;;;;4.47;100.00;103179.81;10362923;28;20474;-91
2022/01/23 00:05:06;;;;;;;0.00;0.00;;;;;;;4.45;100.00;103181.69;10363715;28;20017;-90
2022/01/23 00:10:09;;;;;;;0.00;0.00;;;;;;;4.52;100.00;103184.91;10356161;28;20014;-90
2022/01/23 00:20:28;;;;;;;0.00;0.00;;;;;;;4.54;100.00;103199.78;10380596;28;20035;-91
2022/01/23 00:30:48;;;;;;;0.00;0.00;;;;;;;4.51;100.00;103165.59;10355007;28;20478;-91
2022/01/23 00:35:49;;;;;;;0.00;0.00;;;;;;;4.59;100.00;103174.97;10354568;28;20100;-90
2022/01/23 00:40:50;;;;;;;0.00;0.00;;;;;;;4.56;100.00;103175.09;10353908;28;20490;-91
2022/01/23 00:45:52;;;;;;;0.00;0.00;;;;;;;4.53;100.00;103168.16;10365452;28;20042;-91
2022/01/23 00:50:53;;;;;;;0.00;0.00;;;;;;;4.54;100.00;103170.75;10358969;28;20084;-90
2022/01/23 00:55:53;;;;;;;0.00;0.00;;;;;;;4.53;100.00;103173.44;10358415;28;20030;-91
2022/01/23 01:00:54;;;;;;;0.00;0.00;;;;;;;4.58;100.00;103178.53;10361003;28;20498;-90
2022/01/23 01:05:54;;;;;;;0.00;0.00;;;;;;;4.63;100.00;103200.34;10350340;28;20246;-90
2022/01/23 01:16:41;;;;;;;0.00;0.00;;;;;;;4.60;100.00;103201.31;10363364;28;20699;-90
2022/01/23 01:32:16;;;;;;;0.00;0.00;;;;;;;4.66;100.00;103232.75;10433827;22;20050;-68
2022/01/23 01:37:17;;;;;;;0.00;0.00;;;;;;;4.66;100.00;103231.88;10370532;28;20018;-70
2022/01/23 01:42:17;;;;;;;0.00;0.00;;;;;;;4.64;100.00;103224.00;10363426;28;20026;-69
2022/01/23 01:47:17;;;;;;;0.00;0.00;;;;;;;4.64;100.00;103229.28;10334233;28;20026;-69
2022/01/23 01:52:18;;;;;;;0.00;0.00;;;;;;;4.63;100.00;103216.19;10361041;28;20283;-69
2022/01/23 01:57:18;;;;;;;0.00;0.00;;;;;;;4.63;100.00;103224.09;10329469;28;20026;-69
2022/01/23 02:13:09;;;;;;;0.00;0.00;;;;;;;4.65;100.00;103204.59;10330730;28;20026;-68
2022/01/23 02:55:08;;;;;;;0.00;0.00;;;;;;;4.81;100.00;103199.56;10327457;28;20030;-68
2022/01/23 03:00:13;;;;;;;0.00;0.00;;;;;;;4.82;100.00;103203.06;10328951;28;20379;-68
2022/01/23 03:05:24;;;;;;;0.00;0.00;;;;;;;4.83;100.00;103212.69;10332329;28;20362;-68
2022/01/23 03:10:29;;;;;;;0.00;0.00;;;;;;;4.84;100.00;103220.56;10327073;28;20029;-68
2022/01/23 03:24:02;;;;;;;0.00;0.00;;;;;;;4.86;100.00;103215.19;10326789;28;20018;-68
2022/01/23 03:31:27;;;;;;;0.00;0.00;;;;;;;4.91;100.00;103213.25;10326668;28;20112;-68
2022/01/23 03:36:28;;;;;;;0.00;0.00;;;;;;;4.93;100.00;103216.69;10326508;28;20439;-68
2022/01/23 03:41:28;;;;;;;0.00;0.00;;;;;;;4.92;100.00;103213.19;10332857;28;20061;-68
2022/01/23 03:51:36;;;;;;;0.00;0.00;;;;;;;4.92;100.00;103213.19;10343178;28;20508;-68
2022/01/23 03:56:37;;;;;;;0.00;0.00;;;;;;;4.93;100.00;103214.03;10365655;28;20014;-68
2022/01/23 04:01:37;;;;;;;0.00;0.00;;;;;;;4.95;100.00;103212.22;10367053;28;20044;-69
2022/01/23 04:06:38;;;;;;;0.00;0.00;;;;;;;4.97;100.00;103205.06;10370738;28;20014;-68
2022/01/23 04:11:38;;;;;;;0.00;0.00;;;;;;;5.05;100.00;103217.94;10368089;28;20033;-68
2022/01/23 04:59:33;;;;;;;0.00;0.00;;;;;;;5.25;100.00;103243.53;10329874;28;20109;-68
2022/01/23 04:59:55;;;;;;;0.00;0.00;;;;;;;5.26;100.00;103240.81;10332561;28;20026;-68
2022/01/23 05:04:34;;;;;;;0.00;0.00;;;;;;;5.27;100.00;103244.34;10323932;28;20080;-68
2022/01/23 05:09:35;;;;;;;0.00;0.00;;;;;;;5.28;100.00;103246.03;10331617;28;20022;-68
2022/01/23 05:14:42;;;;;;;0.00;0.00;;;;;;;5.29;100.00;103253.03;10330596;28;20103;-68
2022/01/23 05:19:42;;;;;;;0.00;0.00;;;;;;;5.31;100.00;103265.25;10331075;28;20043;-68
2022/01/23 05:24:50;;;;;;;0.00;0.00;;;;;;;5.33;100.00;103259.94;10330556;28;20461;-68
2022/01/23 05:29:51;;;;;;;0.00;0.00;;;;;;;5.34;100.00;103251.06;10330818;28;20461;-67
2022/01/23 05:34:51;;;;;;;0.00;0.00;;;;;;;5.31;100.00;103257.34;10362064;28;20018;-69
2022/01/23 05:39:51;;;;;;;0.07;0.07;;;;;;;5.34;100.00;103270.41;10333482;28;20261;-70
2022/01/23 05:44:52;;;;;;;0.00;0.00;;;;;;;5.34;100.00;103266.91;10329577;28;21365;-69
2022/01/23 05:49:52;;;;;;;0.00;0.00;;;;;;;5.33;100.00;103268.72;10330140;28;20027;-69
2022/01/23 05:54:52;;;;;;;0.00;0.00;;;;;;;5.35;100.00;103268.63;10350992;28;20025;-69
2022/01/23 05:59:53;;;;;;;0.00;0.00;;;;;;;5.34;100.00;103272.22;10369872;28;20388;-69
2022/01/23 06:04:53;;;;;;;0.00;0.00;;;;;;;5.34;100.00;103273.06;10326384;28;20084;-69
2022/01/23 06:09:53;;;;;;;0.00;0.00;;;;;;;5.33;100.00;103276.63;10350640;28;20017;-69
2022/01/23 06:14:53;;;;;;;0.00;0.00;;;;;;;5.34;100.00;103285.41;10337831;28;20026;-69
2022/01/23 06:19:54;;;;;;;0.00;0.00;;;;;;;5.32;100.00;103285.47;10345077;28;20029;-69
2022/01/23 06:24:54;;;;;;;0.00;0.00;;;;;;;5.34;100.00;103285.41;10368577;28;20079;-69
2022/01/23 06:29:55;;;;;;;0.00;0.00;;;;;;;5.33;100.00;103287.22;10368421;28;20017;-69
2022/01/23 06:34:55;;;;;;;0.03;0.03;;;;;;;5.34;100.00;103288.06;10367839;28;20029;-69
2022/01/23 06:39:56;;;;;;;0.00;0.00;;;;;;;5.35;100.00;103287.13;10368534;28;20024;-69
2022/01/23 06:44:58;;;;;;;0.00;0.00;;;;;;;5.34;100.00;103294.19;10340629;28;20030;-69
2022/01/23 06:49:58;;;;;;;0.00;0.00;;;;;;;5.34;100.00;103296.84;10330267;28;20478;-69
2022/01/23 06:54:58;;;;;;;0.00;0.00;;;;;;;5.34;100.00;103296.00;10327474;28;20018;-69
2022/01/23 06:59:58;;;;;;;0.00;0.00;;;;;;;5.34;100.00;103299.50;10327529;28;20026;-69
2022/01/23 07:04:59;;;;;;;0.00;0.00;;;;;;;5.37;100.00;103303.78;10327514;28;20066;-69
2022/01/23 07:09:59;;;;;;;0.00;0.00;;;;;;;5.35;100.00;103302.97;10327238;28;20269;-69
2022/01/23 07:14:59;;;;;;;0.00;0.00;;;;;;;5.37;100.00;103314.34;10326937;28;20261;-69
2022/01/23 07:20:00;;;;;;;0.00;0.00;;;;;;;5.38;100.00;103332.81;10332397;28;20025;-69
2022/01/23 07:25:02;;;;;;;0.00;0.00;;;;;;;5.40;100.00;103340.66;10365167;28;20026;-69
2022/01/23 07:30:05;;;;;;;0.00;0.00;;;;;;;5.40;100.00;103356.53;10367252;28;20033;-69
2022/01/23 07:35:06;;;;;;;0.00;0.00;;;;;;;5.42;100.00;103350.25;10365100;28;20029;-69
2022/01/23 07:40:07;;;;;;;0.00;0.00;;;;;;;5.43;100.00;103362.53;10369195;28;20033;-68
2022/01/23 07:45:08;;;;;;;0.00;0.00;;;;;;;5.44;100.00;103369.56;10354321;28;20084;-68
2022/01/23 07:50:10;;;;;;;0.00;0.00;;;;;;;5.45;100.00;103381.84;10373364;28;20026;-68
2022/01/23 07:55:13;;;;;;;0.00;0.00;;;;;;;5.47;100.00;103384.44;10374370;28;20540;-68
2022/01/23 08:00:14;;;;;;;0.00;0.00;;;;;;;5.49;100.00;103387.84;10366634;28;20031;-68
2022/01/23 08:05:14;;;;;;;0.00;0.00;;;;;;;5.51;100.00;103387.81;10371227;28;20393;-68
2022/01/23 08:10:15;;;;;;;0.00;0.00;;;;;;;5.55;100.00;103399.97;10333780;28;20066;-68
2022/01/23 08:15:16;;;;;;;0.00;0.00;;;;;;;5.58;100.00;103407.78;10333447;28;20029;-68
2022/01/23 08:20:16;;;;;;;0.00;0.00;;;;;;;5.58;100.00;103400.69;10333581;28;20022;-68
2022/01/23 08:25:17;;;;;;;0.00;0.00;;;;;;;5.60;100.00;103409.44;10332992;28;20018;-68
2022/01/23 08:30:17;;;;;;;0.00;0.00;;;;;;;5.62;100.00;103406.75;10347703;28;20315;-68
2022/01/23 08:35:18;;;;;;;0.00;0.00;;;;;;;5.66;100.00;103418.88;10372913;28;20096;-69
2022/01/23 08:40:23;;;;;;;0.00;0.00;;;;;;;5.69;100.00;103426.69;10359054;28;20710;-69
2022/01/23 08:45:23;;;;;;;0.00;0.00;;;;;;;5.70;100.00;103431.06;10331843;28;20488;-69
2022/01/23 08:50:23;;;;;;;0.00;0.00;;;;;;;5.76;100.00;103422.00;10331527;28;20029;-69
2022/01/23 08:55:24;;;;;;;0.00;0.00;;;;;;;5.81;100.00;103426.19;10338641;28;20041;-69
2022/01/23 09:00:24;;;;;;;0.00;0.00;;;;;;;5.86;100.00;103424.22;10362991;28;20065;-69
2022/01/23 09:05:27;;;;;;;0.00;0.00;;;;;;;5.93;100.00;103423.94;10331395;28;20030;-69
2022/01/23 09:10:39;;;;;;;0.00;0.00;;;;;;;5.98;100.00;103432.59;10365928;28;20536;-68
2022/01/23 09:15:40;;;;;;;0.00;0.00;;;;;;;6.06;100.00;103431.31;10338383;28;20121;-67
2022/01/23 09:20:40;;;;;;;0.00;0.00;;;;;;;6.12;100.00;103431.06;10331192;28;20042;-69
2022/01/23 09:25:40;;;;;;;0.00;0.00;;;;;;;6.22;100.00;103436.81;10330513;28;20054;-69
2022/01/23 09:30:44;;;;;;;0.00;0.00;;;;;;;6.29;100.00;103440.91;10330616;28;20041;-69
2022/01/23 09:35:44;;;;;;;0.00;0.00;;;;;;;6.36;100.00;103438.84;10330277;28;20027;-69
2022/01/23 09:40:47;;;;;;;0.00;0.00;;;;;;;6.42;100.00;103437.72;10330292;28;20026;-69
2022/01/23 09:45:51;;;;;;;0.10;0.10;;;;;;;6.46;100.00;103437.53;10329738;28;20404;-69
2022/01/23 09:50:53;;;;;;;0.00;0.00;;;;;;;6.52;100.00;103447.84;10350202;28;20034;-69
2022/01/23 09:56:03;;;;;;;0.00;0.00;;;;;;;6.55;100.00;103452.16;10364887;28;20025;-69
2022/01/23 10:01:04;;;;;;;0.00;0.00;;;;;;;6.58;100.00;103459.97;10369409;28;20481;-69
2022/01/23 10:06:08;;;;;;;0.00;0.00;;;;;;;6.63;100.00;103463.22;10368729;28;20022;-68
2022/01/23 10:11:12;;;;;;;0.03;0.03;;;;;;;6.64;100.00;103467.63;10369162;28;20477;-69
2022/01/23 10:16:12;;;;;;;0.10;0.10;;;;;;;6.66;100.00;103473.72;10328256;28;20492;-69
2022/01/23 10:21:13;;;;;;;0.00;0.00;;;;;;;6.68;100.00;103463.03;10328612;28;20028;-68
2022/01/23 10:26:49;;;;;;;0.00;0.00;;;;;;;6.74;100.00;103470.69;10338923;28;20377;-69
2022/01/23 10:32:11;;;;;;;0.10;0.10;;;;;;;6.84;100.00;103471.16;10360213;28;20060;-68
2022/01/23 10:37:23;;;;;;;0.00;0.00;;;;;;;6.86;100.00;103477.22;10369070;28;20113;-69
2022/01/23 10:47:47;;;;;;;0.00;0.00;;;;;;;6.92;100.00;103479.59;10343188;28;20022;-69
2022/01/23 10:52:49;;;;;;;0.00;0.00;;;;;;;6.94;100.00;103483.03;10367672;28;20029;-69
2022/01/23 10:57:53;;;;;;;0.00;0.00;;;;;;;6.92;100.00;103487.53;10367698;28;20010;-68
2022/01/23 11:02:55;;;;;;;0.00;0.00;;;;;;;6.98;100.00;103481.97;10367296;28;20030;-68
2022/01/23 11:07:55;;;;;;;0.10;0.10;;;;;;;7.06;100.00;103485.13;10368160;28;20032;-69
2022/01/23 11:17:22;;;;;;;0.10;0.10;;;;;;;7.13;100.00;103480.41;10355020;28;20493;-69
2022/01/23 11:18:34;;;;;;;0.10;0.10;;;;;;;7.25;100.00;103480.69;10348479;28;20530;-69
2022/01/23 11:23:35;;;;;;;0.00;0.00;;;;;;;7.36;100.00;103471.34;10342553;28;20029;-68
2022/01/23 11:28:43;;;;;;;0.10;0.10;;;;;;;7.42;100.00;103460.47;10347596;28;20565;-69
2022/01/23 11:33:46;;;;;;;0.00;0.00;;;;;;;7.46;100.00;103460.22;10355895;28;20105;-68
2022/01/23 11:38:48;;;;;;;0.00;0.00;;;;;;;7.48;100.00;103455.72;10327003;28;20022;-68
2022/01/23 11:54:48;;;;;;;0.05;0.05;;;;;;;7.57;100.00;103459.72;10329358;28;20030;-68
2022/01/23 11:59:48;;;;;;;0.00;0.00;;;;;;;7.55;100.00;103458.06;10353322;28;20065;-69
2022/01/23 12:05:15;;;;;;;0.00;0.00;;;;;;;7.60;100.00;103456.06;10364968;28;20111;-69
2022/01/23 12:10:23;;;;;;;0.10;0.10;;;;;;;7.47;100.00;103453.97;10366426;28;20033;-69
2022/01/23 12:20:51;;;;;;;0.10;0.10;;;;;;;7.24;100.00;103451.59;10324636;28;20026;-68
2022/01/23 12:25:54;;;;;;;0.00;0.00;;;;;;;7.23;100.00;103442.78;10327051;28;20032;-68
2022/01/23 12:30:57;;;;;;;0.00;0.00;;;;;;;7.34;100.00;103447.56;10333607;28;20022;-70
2022/01/23 12:36:03;;;;;;;0.00;0.00;;;;;;;7.49;100.00;103443.31;10334496;28;20500;-70
2022/01/23 12:41:40;;;;;;;0.10;0.10;;;;;;;7.60;100.00;103443.66;10334636;28;20052;-68
2022/01/23 12:46:47;;;;;;;0.00;0.00;;;;;;;7.67;100.00;103442.41;10333440;28;20096;-69
2022/01/23 12:52:11;;;;;;;0.00;0.00;;;;;;;7.66;100.00;103439.84;10334128;28;20027;-70
2022/01/23 12:57:26;;;;;;;0.00;0.00;;;;;;;7.54;100.00;103437.81;10334103;28;20077;-70
2022/01/23 13:02:34;;;;;;;0.00;0.00;;;;;;;7.42;100.00;103434.81;10334414;28;20101;-70
2022/01/23 13:33:52;;;;;;;0.00;0.00;;;;;;;7.00;100.00;103438.56;10309613;28;20326;-70
2022/01/23 13:38:54;;;;;;;0.10;0.10;;;;;;;6.91;100.00;103441.66;10332528;28;20385;-70
2022/01/23 13:50:11;;;;;;;0.00;0.00;;;;;;;6.86;100.00;103450.75;10407171;28;20570;-69
2022/01/23 13:59:50;;;;;;;0.00;0.00;;;;;;;6.79;100.00;103463.41;10452592;28;20471;-72
2022/01/23 14:04:54;;;;;;;0.00;0.00;;;;;;;6.70;100.00;103456.75;10448617;28;20468;-73
2022/01/23 14:09:57;;;;;;;0.00;0.00;;;;;;;6.62;100.00;103463.31;10426885;28;20059;-72
2022/01/23 14:15:05;;;;;;;0.00;0.00;;;;;;;6.62;100.00;103460.66;10430038;28;20023;-72
2022/01/23 14:20:17;;;;;;;0.00;0.00;;;;;;;6.59;100.00;103461.66;10409413;28;20021;-72
2022/01/23 14:25:20;;;;;;;0.00;0.00;;;;;;;6.54;100.00;103464.53;10428567;28;20039;-72
2022/01/23 14:30:23;;;;;;;0.00;0.00;;;;;;;6.52;100.00;103476.13;10451205;28;20494;-72
2022/01/23 14:35:29;;;;;;;0.00;0.00;;;;;;;6.46;100.00;103471.94;10450776;28;20087;-71
2022/01/23 14:40:29;;;;;;;0.00;0.00;;;;;;;6.43;100.00;103477.38;10450589;28;20024;-72
2022/01/23 14:45:36;;;;;;;0.00;0.00;;;;;;;6.40;100.00;103495.16;10420450;28;20028;-72
2022/01/23 14:50:39;;;;;;;0.00;0.00;;;;;;;6.34;100.00;103491.88;10407379;28;20059;-71
2022/01/23 14:55:43;;;;;;;0.00;0.00;;;;;;;6.29;100.00;103485.91;10413313;28;20026;-74
2022/01/23 15:00:44;;;;;;;0.10;0.10;;;;;;;6.21;100.00;103490.69;10410769;28;20017;-71
2022/01/23 15:05:44;;;;;;;0.00;0.00;;;;;;;6.16;100.00;103495.28;10408409;28;20021;-73
2022/01/23 15:10:44;;;;;;;0.00;0.00;;;;;;;6.10;100.00;103496.41;10416755;28;20060;-74
2022/01/23 15:15:45;;;;;;;0.00;0.00;;;;;;;6.04;100.00;103494.03;10413978;28;20464;-72
2022/01/23 15:20:46;;;;;;;0.00;0.00;;;;;;;6.00;100.00;103503.03;10407872;28;20758;-73
2022/01/23 15:25:47;;;;;;;0.00;0.00;;;;;;;5.96;100.00;103508.50;10407768;28;20482;-71
2022/01/23 15:30:49;;;;;;;0.00;0.00;;;;;;;5.92;100.00;103512.19;10408007;28;20361;-71
2022/01/23 15:35:49;;;;;;;0.00;0.00;;;;;;;5.88;100.00;103509.66;10407739;28;20021;-72
2022/01/23 15:40:50;;;;;;;0.00;0.00;;;;;;;5.84;100.00;103508.03;10406719;28;20391;-72
2022/01/23 15:45:52;;;;;;;0.00;0.00;;;;;;;5.82;100.00;103504.63;10414600;28;20789;-72
2022/01/23 15:50:52;;;;;;;0.00;0.00;;;;;;;5.79;100.00;103502.09;10408935;28;20032;-71
2022/01/23 15:55:53;;;;;;;0.00;0.00;;;;;;;5.76;100.00;103507.53;10441576;28;20029;-73
2022/01/23 16:00:54;;;;;;;0.00;0.00;;;;;;;5.77;100.00;103513.66;10449331;28;20107;-74
2022/01/23 16:05:56;;;;;;;0.00;0.00;;;;;;;5.73;100.00;103512.06;10455894;28;20017;-72
2022/01/23 16:10:59;;;;;;;0.00;0.00;;;;;;;5.71;100.00;103513.91;10457472;28;20025;-71
2022/01/23 16:16:00;;;;;;;0.00;0.00;;;;;;;5.69;100.00;103519.25;10457297;28;20027;-71
2022/01/23 16:21:00;;;;;;;0.00;0.00;;;;;;;5.65;100.00;103517.66;10424810;28;20120;-72
2022/01/23 16:26:01;;;;;;;0.00;0.00;;;;;;;5.63;100.00;103522.16;10418373;28;20029;-73
2022/01/23 16:31:01;;;;;;;0.00;0.00;;;;;;;5.59;100.00;103523.22;10448222;28;20112;-72
2022/01/23 16:36:02;;;;;;;0.00;0.00;;;;;;;5.59;100.00;103526.69;10454468;28;20113;-72
2022/01/23 16:41:03;;;;;;;0.00;0.00;;;;;;;5.57;100.00;103527.69;10447737;28;20035;-71
2022/01/23 16:46:05;;;;;;;0.00;0.00;;;;;;;5.56;100.00;103532.13;10415161;28;20057;-71
2022/01/23 16:51:05;;;;;;;0.00;0.00;;;;;;;5.54;100.00;103533.94;10424601;28;20031;-71
2022/01/23 16:56:06;;;;;;;0.00;0.00;;;;;;;5.54;100.00;103535.72;10439691;28;20066;-70
2022/01/23 17:01:07;;;;;;;0.00;0.00;;;;;;;5.52;100.00;103535.78;10414877;28;20029;-70
2022/01/23 17:06:07;;;;;;;0.00;0.00;;;;;;;5.51;100.00;103538.50;10413291;28;20029;-71
2022/01/23 17:11:08;;;;;;;0.00;0.00;;;;;;;5.51;100.00;103535.84;10411855;28;20476;-71
2022/01/23 17:16:08;;;;;;;0.00;0.00;;;;;;;5.49;100.00;103535.03;10413264;28;20021;-73
2022/01/23 17:21:09;;;;;;;0.00;0.00;;;;;;;5.47;100.00;103529.84;10412368;28;20466;-73
2022/01/23 17:26:09;;;;;;;0.00;0.00;;;;;;;5.43;100.00;103537.00;10411648;28;20033;-72
2022/01/23 17:31:09;;;;;;;0.00;0.00;;;;;;;5.39;100.00;103540.69;10431330;28;20103;-73
2022/01/23 17:36:10;;;;;;;0.00;0.00;;;;;;;5.38;100.00;103538.97;10452517;28;20259;-73
2022/01/23 17:41:12;;;;;;;0.00;0.00;;;;;;;5.36;100.00;103546.09;10432066;28;20029;-72
2022/01/23 17:46:20;;;;;;;0.00;0.00;;;;;;;5.34;100.00;103531.22;10410972;28;20786;-72
2022/01/23 17:51:20;;;;;;;0.00;0.00;;;;;;;5.32;100.00;103533.91;10430052;28;20028;-73
2022/01/23 17:56:21;;;;;;;0.00;0.00;;;;;;;5.30;100.00;103529.63;10410773;28;20016;-73
2022/01/23 18:01:22;;;;;;;0.00;0.00;;;;;;;5.28;100.00;103537.59;10410388;28;20303;-73
2022/01/23 18:06:28;;;;;;;0.00;0.00;;;;;;;5.28;100.00;103537.59;10410824;28;20021;-73
2022/01/23 18:11:28;;;;;;;0.00;0.00;;;;;;;5.25;100.00;103540.34;10410214;28;20056;-73
2022/01/23 18:16:31;;;;;;;0.00;0.00;;;;;;;5.24;100.00;103551.84;10413342;28;20041;-72
2022/01/23 18:21:31;;;;;;;0.00;0.00;;;;;;;5.20;100.00;103550.22;10451003;28;20280;-72
2022/01/23 18:26:32;;;;;;;0.00;0.00;;;;;;;5.17;100.00;103547.69;10448295;28;20041;-72
2022/01/23 18:31:33;;;;;;;0.10;0.10;;;;;;;5.13;100.00;103549.59;10450688;28;20460;-72
2022/01/23 18:36:34;;;;;;;0.00;0.00;;;;;;;5.12;100.00;103547.00;10449921;28;20020;-73
2022/01/23 18:41:35;;;;;;;0.00;0.00;;;;;;;5.07;100.00;103555.13;10446895;28;20024;-73
2022/01/23 18:46:36;;;;;;;0.00;0.00;;;;;;;5.07;100.00;103559.56;10410602;28;20043;-72
2022/01/23 18:51:38;;;;;;;0.00;0.00;;;;;;;5.05;100.00;103567.53;10407247;28;20021;-72
2022/01/23 19:01:54;;;;;;;0.00;0.00;;;;;;;5.01;100.00;103567.69;10408392;28;20064;-72
2022/01/23 19:06:57;;;;;;;0.00;0.00;;;;;;;4.97;100.00;103567.81;10445624;28;20139;-73
2022/01/23 19:12:02;;;;;;;0.00;0.00;;;;;;;4.94;100.00;103559.13;10442299;28;20396;-73
2022/01/23 19:17:02;;;;;;;0.00;0.00;;;;;;;4.90;100.00;103560.16;10408297;28;20337;-72
2022/01/23 19:22:03;;;;;;;0.00;0.00;;;;;;;4.85;100.00;103562.94;10407067;28;20490;-72
2022/01/23 19:27:03;;;;;;;0.00;0.00;;;;;;;4.85;100.00;103559.44;10407416;28;20766;-72
2022/01/23 19:32:04;;;;;;;0.00;0.00;;;;;;;4.82;100.00;103549.84;10407725;28;20265;-72
2022/01/23 19:37:05;;;;;;;0.00;0.00;;;;;;;4.81;100.00;103552.56;10416656;28;20026;-72
2022/01/23 19:42:18;;;;;;;0.00;0.00;;;;;;;4.76;100.00;103553.56;10417873;28;20033;-72
2022/01/23 19:47:23;;;;;;;0.00;0.00;;;;;;;4.73;100.00;103545.75;10423355;28;20395;-72
2022/01/23 19:52:23;;;;;;;0.00;0.00;;;;;;;4.71;100.00;103549.38;10402342;22;20049;-71
2022/01/23 19:57:24;;;;;;;0.00;0.00;;;;;;;4.69;100.00;103545.94;10376554;28;20018;-70
2022/01/23 20:02:24;;;;;;;0.00;0.00;;;;;;;4.68;100.00;103565.31;10376109;28;20149;-70
2022/01/23 20:07:27;;;;;;;0.00;0.00;;;;;;;4.67;100.00;103566.25;10376326;28;20032;-71
2022/01/23 20:12:46;;;;;;;0.00;0.00;;;;;;;4.67;100.00;103555.69;10376007;28;20100;-71
2022/01/23 20:17:47;;;;;;;0.00;0.00;;;;;;;4.63;100.00;103554.09;10375793;28;20613;-71
2022/01/23 20:22:47;;;;;;;0.00;0.00;;;;;;;4.60;100.00;103554.19;10375796;28;20025;-70
2022/01/23 20:27:48;;;;;;;0.00;0.00;;;;;;;4.58;100.00;103550.75;10375645;28;20022;-71
2022/01/23 20:32:48;;;;;;;0.00;0.00;;;;;;;4.57;100.00;103543.72;10376000;28;20053;-70
2022/01/23 20:37:51;;;;;;;0.00;0.00;;;;;;;4.55;100.00;103546.44;10375199;28;20267;-70
2022/01/23 20:42:51;;;;;;;0.00;0.00;;;;;;;4.52;100.00;103547.38;10374783;28;20037;-71
2022/01/23 20:47:51;;;;;;;0.00;0.00;;;;;;;4.52;100.00;103536.84;10374015;28;20026;-71
2022/01/23 20:57:52;;;;;;;0.00;0.00;;;;;;;4.52;100.00;103539.47;10375147;28;20453;-71
2022/01/23 21:02:53;;;;;;;0.00;0.00;;;;;;;4.52;100.00;103544.75;10372978;28;20515;-71
2022/01/23 21:07:55;;;;;;;0.00;0.00;;;;;;;4.52;100.00;103544.75;10374175;28;20033;-71
2022/01/23 21:12:57;;;;;;;0.00;0.00;;;;;;;4.51;100.00;103542.19;10373167;28;20481;-70
2022/01/23 21:39:06;;;;;;;0.00;0.00;;;;;;;4.48;100.00;103551.06;10373348;28;20105;-71
2022/01/23 21:43:58;;;;;;;0.00;0.00;;;;;;;4.47;100.00;103543.19;10346305;28;20464;-71
2022/01/23 21:49:03;;;;;;;0.00;0.00;;;;;;;4.48;100.00;103550.19;10371005;28;20034;-71
2022/01/23 21:54:06;;;;;;;0.00;0.00;;;;;;;4.46;100.00;103552.88;10371663;28;20037;-71
2022/01/23 21:59:06;;;;;;;0.00;0.00;;;;;;;4.47;100.00;103549.31;10369632;28;20030;-71
2022/01/23 22:04:06;;;;;;;0.00;0.00;;;;;;;4.46;100.00;103547.59;10371808;28;20611;-71
2022/01/23 22:09:13;;;;;;;0.00;0.00;;;;;;;4.47;100.00;103554.59;10371870;28;20033;-71
2022/01/23 22:19:32;;;;;;;0.00;0.00;;;;;;;4.48;100.00;103544.91;10371969;28;20418;-69
2022/01/23 22:29:51;;;;;;;0.00;0.00;;;;;;;4.50;100.00;103536.00;10371111;28;20540;-70
2022/01/23 22:34:52;;;;;;;0.00;0.00;;;;;;;4.52;100.00;103543.91;10370926;28;20101;-70
2022/01/23 22:39:53;;;;;;;0.00;0.00;;;;;;;4.54;100.00;103547.34;10370623;28;20022;-70
2022/01/23 22:49:56;;;;;;;0.00;0.00;;;;;;;4.58;100.00;103548.09;10370649;28;20524;-70
2022/01/23 22:54:56;;;;;;;0.00;0.00;;;;;;;4.59;100.00;103549.81;10370215;28;20026;-70
2022/01/23 22:59:57;;;;;;;0.00;0.00;;;;;;;4.60;100.00;103551.56;10370163;28;20025;-70
2022/01/23 23:04:57;;;;;;;0.00;0.00;;;;;;;4.60;100.00;103548.91;10370642;28;20397;-70
2022/01/23 23:09:57;;;;;;;0.00;0.00;;;;;;;4.60;100.00;103549.78;10369458;28;20026;-71
2022/01/23 23:14:58;;;;;;;0.00;0.00;;;;;;;4.61;100.00;103546.22;10369462;28;20547;-70
2022/01/23 23:20:06;;;;;;;0.00;0.00;;;;;;;4.63;100.00;103535.59;10369718;28;20021;-71
2022/01/23 23:25:06;;;;;;;0.00;0.00;;;;;;;4.62;100.00;103537.34;10369358;28;20029;-70
2022/01/23 23:30:07;;;;;;;0.00;0.00;;;;;;;4.61;100.00;103529.50;10369429;28;20105;-70
2022/01/23 23:35:08;;;;;;;0.00;0.00;;;;;;;4.60;100.00;103525.16;10368153;28;20030;-71
2022/01/23 23:40:17;;;;;;;0.00;0.00;;;;;;;4.59;100.00;103521.63;10367971;28;20026;-69
2022/01/23 23:45:18;;;;;;;0.00;0.00;;;;;;;4.56;100.00;103521.75;10369032;28;20026;-71
2022/01/23 23:50:19;;;;;;;0.00;0.00;;;;;;;4.53;100.00;103528.00;10369062;28;20404;-68
2022/01/23 23:55:20;;;;;;;0.00;0.00;;;;;;;4.50;100.00;103536.00;10368830;28;20028;-69
